sensor_id;sensor_type;location;lat;lon;timestamp;P1;durP1;ratioP1;P2;durP2;ratioP2
59424;SDS011;45231;44.826;20.312;2023-06-04T00:01:41;12.00;;;7.25;;
59424;SDS011;45231;44.826;20.312;2023-06-04T00:04:10;12.73;;;7.43;;
59424;SDS011;45231;44.826;20.312;2023-06-04T00:06:36;12.90;;;8.10;;
59424;SDS011;45231;44.826;20.312;2023-06-04T00:09:02;13.02;;;7.78;;
59424;SDS011;45231;44.826;20.312;2023-06-04T00:11:28;12.00;;;8.15;;
59424;SDS011;45231;44.826;20.312;2023-06-04T00:13:54;11.77;;;8.75;;
59424;SDS011;45231;44.826;20.312;2023-06-04T00:16:20;12.48;;;8.32;;
59424;SDS011;45231;44.826;20.312;2023-06-04T00:18:46;12.38;;;8.00;;
59424;SDS011;45231;44.826;20.312;2023-06-04T00:21:12;11.73;;;7.57;;
59424;SDS011;45231;44.826;20.312;2023-06-04T00:23:38;13.70;;;8.60;;
59424;SDS011;45231;44.826;20.312;2023-06-04T00:26:04;15.85;;;8.70;;
59424;SDS011;45231;44.826;20.312;2023-06-04T00:28:30;11.35;;;7.55;;
59424;SDS011;45231;44.826;20.312;2023-06-04T00:30:56;11.10;;;7.68;;
59424;SDS011;45231;44.826;20.312;2023-06-04T00:33:22;13.73;;;7.63;;
59424;SDS011;45231;44.826;20.312;2023-06-04T00:35:48;11.60;;;7.72;;
59424;SDS011;45231;44.826;20.312;2023-06-04T00:38:14;11.90;;;7.78;;
59424;SDS011;45231;44.826;20.312;2023-06-04T00:40:40;14.75;;;7.80;;
59424;SDS011;45231;44.826;20.312;2023-06-04T00:43:06;14.63;;;8.07;;
59424;SDS011;45231;44.826;20.312;2023-06-04T00:47:59;12.07;;;7.65;;
59424;SDS011;45231;44.826;20.312;2023-06-04T00:50:25;10.48;;;7.15;;
59424;SDS011;45231;44.826;20.312;2023-06-04T00:52:52;12.27;;;7.05;;
59424;SDS011;45231;44.826;20.312;2023-06-04T00:55:18;11.65;;;7.63;;
59424;SDS011;45231;44.826;20.312;2023-06-04T00:57:44;12.32;;;7.65;;
59424;SDS011;45231;44.826;20.312;2023-06-04T01:00:10;10.50;;;7.45;;
59424;SDS011;45231;44.826;20.312;2023-06-04T01:02:38;9.55;;;7.53;;
59424;SDS011;45231;44.826;20.312;2023-06-04T01:07:30;11.60;;;8.00;;
59424;SDS011;45231;44.826;20.312;2023-06-04T01:09:56;14.45;;;8.27;;
59424;SDS011;45231;44.826;20.312;2023-06-04T01:12:22;11.05;;;8.00;;
59424;SDS011;45231;44.826;20.312;2023-06-04T01:14:48;12.85;;;8.13;;
59424;SDS011;45231;44.826;20.312;2023-06-04T01:25:15;11.70;;;7.70;;
59424;SDS011;45231;44.826;20.312;2023-06-04T01:27:47;13.55;;;8.43;;
59424;SDS011;45231;44.826;20.312;2023-06-04T01:30:14;13.30;;;8.13;;
59424;SDS011;45231;44.826;20.312;2023-06-04T01:32:41;17.02;;;8.18;;
59424;SDS011;45231;44.826;20.312;2023-06-04T01:35:08;14.15;;;8.88;;
59424;SDS011;45231;44.826;20.312;2023-06-04T01:37:35;13.70;;;10.05;;
59424;SDS011;45231;44.826;20.312;2023-06-04T01:40:01;15.70;;;9.13;;
59424;SDS011;45231;44.826;20.312;2023-06-04T01:42:27;11.27;;;8.40;;
59424;SDS011;45231;44.826;20.312;2023-06-04T01:44:53;12.70;;;8.80;;
59424;SDS011;45231;44.826;20.312;2023-06-04T01:47:19;12.98;;;9.27;;
59424;SDS011;45231;44.826;20.312;2023-06-04T01:49:45;18.77;;;9.40;;
59424;SDS011;45231;44.826;20.312;2023-06-04T01:52:12;17.13;;;9.65;;
59424;SDS011;45231;44.826;20.312;2023-06-04T01:54:38;15.73;;;9.82;;
59424;SDS011;45231;44.826;20.312;2023-06-04T01:57:04;14.00;;;9.57;;
59424;SDS011;45231;44.826;20.312;2023-06-04T01:59:30;16.10;;;10.15;;
59424;SDS011;45231;44.826;20.312;2023-06-04T02:01:58;15.05;;;9.05;;
59424;SDS011;45231;44.826;20.312;2023-06-04T02:04:26;12.98;;;9.93;;
59424;SDS011;45231;44.826;20.312;2023-06-04T02:06:52;13.70;;;10.23;;
59424;SDS011;45231;44.826;20.312;2023-06-04T02:09:19;17.48;;;12.27;;
59424;SDS011;45231;44.826;20.312;2023-06-04T02:11:45;14.85;;;10.60;;
59424;SDS011;45231;44.826;20.312;2023-06-04T02:14:11;15.65;;;10.07;;
59424;SDS011;45231;44.826;20.312;2023-06-04T02:16:37;15.65;;;10.50;;
59424;SDS011;45231;44.826;20.312;2023-06-04T02:19:04;13.93;;;10.00;;
59424;SDS011;45231;44.826;20.312;2023-06-04T02:21:30;17.33;;;11.30;;
59424;SDS011;45231;44.826;20.312;2023-06-04T02:23:56;14.20;;;10.35;;
59424;SDS011;45231;44.826;20.312;2023-06-04T02:26:22;13.13;;;10.20;;
59424;SDS011;45231;44.826;20.312;2023-06-04T02:28:48;14.63;;;11.07;;
59424;SDS011;45231;44.826;20.312;2023-06-04T02:31:14;15.57;;;10.50;;
59424;SDS011;45231;44.826;20.312;2023-06-04T02:33:40;16.35;;;9.93;;
59424;SDS011;45231;44.826;20.312;2023-06-04T02:36:06;17.25;;;10.77;;
59424;SDS011;45231;44.826;20.312;2023-06-04T02:38:34;15.32;;;10.38;;
59424;SDS011;45231;44.826;20.312;2023-06-04T02:41:00;13.00;;;9.25;;
59424;SDS011;45231;44.826;20.312;2023-06-04T02:43:26;12.70;;;8.57;;
59424;SDS011;45231;44.826;20.312;2023-06-04T02:45:52;12.80;;;8.43;;
59424;SDS011;45231;44.826;20.312;2023-06-04T02:48:18;12.45;;;8.52;;
59424;SDS011;45231;44.826;20.312;2023-06-04T02:50:44;16.13;;;8.55;;
59424;SDS011;45231;44.826;20.312;2023-06-04T02:53:11;12.02;;;8.75;;
59424;SDS011;45231;44.826;20.312;2023-06-04T02:55:37;15.35;;;8.82;;
59424;SDS011;45231;44.826;20.312;2023-06-04T02:58:03;11.55;;;8.57;;
59424;SDS011;45231;44.826;20.312;2023-06-04T03:00:29;12.20;;;8.98;;
59424;SDS011;45231;44.826;20.312;2023-06-04T03:02:56;11.60;;;8.55;;
59424;SDS011;45231;44.826;20.312;2023-06-04T03:05:26;13.40;;;9.15;;
59424;SDS011;45231;44.826;20.312;2023-06-04T03:07:52;12.90;;;9.48;;
59424;SDS011;45231;44.826;20.312;2023-06-04T03:10:21;12.43;;;8.52;;
59424;SDS011;45231;44.826;20.312;2023-06-04T03:12:47;14.00;;;9.50;;
59424;SDS011;45231;44.826;20.312;2023-06-04T03:15:13;15.48;;;9.40;;
59424;SDS011;45231;44.826;20.312;2023-06-04T03:17:40;14.18;;;9.95;;
59424;SDS011;45231;44.826;20.312;2023-06-04T03:20:06;20.52;;;10.73;;
59424;SDS011;45231;44.826;20.312;2023-06-04T03:22:33;13.35;;;9.30;;
59424;SDS011;45231;44.826;20.312;2023-06-04T03:25:00;13.75;;;9.73;;
59424;SDS011;45231;44.826;20.312;2023-06-04T03:29:53;14.63;;;10.05;;
59424;SDS011;45231;44.826;20.312;2023-06-04T03:32:19;16.88;;;10.20;;
59424;SDS011;45231;44.826;20.312;2023-06-04T03:34:45;12.57;;;9.63;;
59424;SDS011;45231;44.826;20.312;2023-06-04T03:37:11;14.75;;;10.07;;
59424;SDS011;45231;44.826;20.312;2023-06-04T03:39:37;12.95;;;9.38;;
59424;SDS011;45231;44.826;20.312;2023-06-04T03:42:03;16.02;;;9.98;;
59424;SDS011;45231;44.826;20.312;2023-06-04T03:44:30;14.35;;;9.52;;
59424;SDS011;45231;44.826;20.312;2023-06-04T03:46:56;25.70;;;12.27;;
59424;SDS011;45231;44.826;20.312;2023-06-04T03:49:22;17.05;;;12.00;;
59424;SDS011;45231;44.826;20.312;2023-06-04T03:51:48;17.25;;;11.00;;
59424;SDS011;45231;44.826;20.312;2023-06-04T03:54:14;14.85;;;10.50;;
59424;SDS011;45231;44.826;20.312;2023-06-04T03:56:44;14.60;;;9.68;;
59424;SDS011;45231;44.826;20.312;2023-06-04T03:59:11;15.52;;;11.38;;
59424;SDS011;45231;44.826;20.312;2023-06-04T04:01:37;16.67;;;12.05;;
59424;SDS011;45231;44.826;20.312;2023-06-04T04:04:04;15.63;;;11.77;;
59424;SDS011;45231;44.826;20.312;2023-06-04T04:06:30;19.48;;;11.65;;
59424;SDS011;45231;44.826;20.312;2023-06-04T04:08:56;18.58;;;11.35;;
59424;SDS011;45231;44.826;20.312;2023-06-04T04:13:49;15.57;;;10.65;;
59424;SDS011;45231;44.826;20.312;2023-06-04T04:16:15;14.48;;;10.75;;
59424;SDS011;45231;44.826;20.312;2023-06-04T04:18:42;17.02;;;11.23;;
59424;SDS011;45231;44.826;20.312;2023-06-04T04:21:11;15.00;;;10.55;;
59424;SDS011;45231;44.826;20.312;2023-06-04T04:23:38;16.52;;;11.00;;
59424;SDS011;45231;44.826;20.312;2023-06-04T04:26:07;14.77;;;9.75;;
59424;SDS011;45231;44.826;20.312;2023-06-04T04:28:35;15.70;;;9.23;;
59424;SDS011;45231;44.826;20.312;2023-06-04T04:31:01;14.25;;;9.43;;
59424;SDS011;45231;44.826;20.312;2023-06-04T04:33:31;13.50;;;9.35;;
59424;SDS011;45231;44.826;20.312;2023-06-04T04:36:05;14.35;;;8.85;;
59424;SDS011;45231;44.826;20.312;2023-06-04T04:38:33;12.80;;;8.70;;
59424;SDS011;45231;44.826;20.312;2023-06-04T04:41:00;11.15;;;7.80;;
59424;SDS011;45231;44.826;20.312;2023-06-04T04:43:30;10.57;;;7.72;;
59424;SDS011;45231;44.826;20.312;2023-06-04T04:45:56;12.57;;;8.18;;
59424;SDS011;45231;44.826;20.312;2023-06-04T04:48:22;14.10;;;8.43;;
59424;SDS011;45231;44.826;20.312;2023-06-04T04:50:48;14.02;;;8.20;;
59424;SDS011;45231;44.826;20.312;2023-06-04T04:55:41;12.27;;;7.57;;
59424;SDS011;45231;44.826;20.312;2023-06-04T04:58:07;14.90;;;8.80;;
59424;SDS011;45231;44.826;20.312;2023-06-04T05:00:33;10.30;;;6.78;;
59424;SDS011;45231;44.826;20.312;2023-06-04T05:02:59;12.57;;;7.45;;
59424;SDS011;45231;44.826;20.312;2023-06-04T05:05:25;14.43;;;7.25;;
59424;SDS011;45231;44.826;20.312;2023-06-04T05:07:51;17.50;;;7.90;;
59424;SDS011;45231;44.826;20.312;2023-06-04T05:10:17;9.32;;;6.43;;
59424;SDS011;45231;44.826;20.312;2023-06-04T05:12:53;11.35;;;6.90;;
59424;SDS011;45231;44.826;20.312;2023-06-04T05:15:20;9.20;;;6.50;;
59424;SDS011;45231;44.826;20.312;2023-06-04T05:17:46;13.75;;;7.00;;
59424;SDS011;45231;44.826;20.312;2023-06-04T05:20:12;9.20;;;5.55;;
59424;SDS011;45231;44.826;20.312;2023-06-04T05:22:40;10.38;;;5.80;;
59424;SDS011;45231;44.826;20.312;2023-06-04T05:25:06;9.15;;;5.25;;
59424;SDS011;45231;44.826;20.312;2023-06-04T05:27:33;10.70;;;5.30;;
59424;SDS011;45231;44.826;20.312;2023-06-04T05:30:00;8.43;;;5.53;;
59424;SDS011;45231;44.826;20.312;2023-06-04T05:32:28;12.55;;;5.60;;
59424;SDS011;45231;44.826;20.312;2023-06-04T05:34:56;9.38;;;5.30;;
59424;SDS011;45231;44.826;20.312;2023-06-04T05:37:22;9.40;;;4.95;;
59424;SDS011;45231;44.826;20.312;2023-06-04T05:42:14;9.93;;;4.93;;
59424;SDS011;45231;44.826;20.312;2023-06-04T05:44:41;13.73;;;5.05;;
59424;SDS011;45231;44.826;20.312;2023-06-04T05:47:07;10.45;;;5.15;;
59424;SDS011;45231;44.826;20.312;2023-06-04T05:49:33;8.88;;;5.15;;
59424;SDS011;45231;44.826;20.312;2023-06-04T05:52:00;10.43;;;5.45;;
59424;SDS011;45231;44.826;20.312;2023-06-04T05:54:26;10.70;;;5.25;;
59424;SDS011;45231;44.826;20.312;2023-06-04T05:56:52;10.75;;;5.35;;
59424;SDS011;45231;44.826;20.312;2023-06-04T05:59:18;12.13;;;5.40;;
59424;SDS011;45231;44.826;20.312;2023-06-04T06:01:45;10.23;;;5.63;;
59424;SDS011;45231;44.826;20.312;2023-06-04T06:04:12;9.38;;;4.95;;
59424;SDS011;45231;44.826;20.312;2023-06-04T06:06:39;8.45;;;5.03;;
59424;SDS011;45231;44.826;20.312;2023-06-04T06:09:06;11.68;;;5.50;;
59424;SDS011;45231;44.826;20.312;2023-06-04T06:11:33;9.90;;;5.43;;
59424;SDS011;45231;44.826;20.312;2023-06-04T06:14:00;9.60;;;5.07;;
59424;SDS011;45231;44.826;20.312;2023-06-04T06:18:52;10.80;;;5.00;;
59424;SDS011;45231;44.826;20.312;2023-06-04T06:23:45;9.15;;;5.22;;
59424;SDS011;45231;44.826;20.312;2023-06-04T06:28:38;8.90;;;4.97;;
59424;SDS011;45231;44.826;20.312;2023-06-04T06:31:04;10.50;;;5.05;;
59424;SDS011;45231;44.826;20.312;2023-06-04T06:35:57;14.38;;;5.10;;
59424;SDS011;45231;44.826;20.312;2023-06-04T06:38:26;9.52;;;5.07;;
59424;SDS011;45231;44.826;20.312;2023-06-04T06:43:18;8.48;;;5.22;;
59424;SDS011;45231;44.826;20.312;2023-06-04T06:48:10;8.65;;;5.10;;
59424;SDS011;45231;44.826;20.312;2023-06-04T06:50:36;8.18;;;4.63;;
59424;SDS011;45231;44.826;20.312;2023-06-04T06:53:03;9.10;;;4.47;;
59424;SDS011;45231;44.826;20.312;2023-06-04T06:55:29;7.43;;;4.47;;
59424;SDS011;45231;44.826;20.312;2023-06-04T06:57:55;9.10;;;4.63;;
59424;SDS011;45231;44.826;20.312;2023-06-04T07:00:21;11.35;;;4.60;;
59424;SDS011;45231;44.826;20.312;2023-06-04T07:02:48;9.15;;;4.20;;
59424;SDS011;45231;44.826;20.312;2023-06-04T07:05:14;10.70;;;4.05;;
59424;SDS011;45231;44.826;20.312;2023-06-04T07:07:42;8.00;;;4.38;;
59424;SDS011;45231;44.826;20.312;2023-06-04T07:10:08;12.90;;;4.35;;
59424;SDS011;45231;44.826;20.312;2023-06-04T07:12:35;9.05;;;4.22;;
59424;SDS011;45231;44.826;20.312;2023-06-04T07:15:01;8.25;;;4.28;;
59424;SDS011;45231;44.826;20.312;2023-06-04T07:19:53;8.32;;;4.18;;
59424;SDS011;45231;44.826;20.312;2023-06-04T07:22:19;8.18;;;4.22;;
59424;SDS011;45231;44.826;20.312;2023-06-04T07:24:45;6.63;;;3.70;;
59424;SDS011;45231;44.826;20.312;2023-06-04T07:27:12;7.18;;;4.45;;
59424;SDS011;45231;44.826;20.312;2023-06-04T07:29:38;7.78;;;3.90;;
59424;SDS011;45231;44.826;20.312;2023-06-04T07:32:04;7.60;;;3.80;;
59424;SDS011;45231;44.826;20.312;2023-06-04T07:34:31;8.93;;;3.70;;
59424;SDS011;45231;44.826;20.312;2023-06-04T07:36:57;6.28;;;3.80;;
59424;SDS011;45231;44.826;20.312;2023-06-04T07:39:23;7.70;;;3.40;;
59424;SDS011;45231;44.826;20.312;2023-06-04T07:41:49;7.47;;;3.75;;
59424;SDS011;45231;44.826;20.312;2023-06-04T07:44:15;5.95;;;3.70;;
59424;SDS011;45231;44.826;20.312;2023-06-04T07:46:41;12.50;;;4.55;;
59424;SDS011;45231;44.826;20.312;2023-06-04T07:49:08;6.97;;;3.55;;
59424;SDS011;45231;44.826;20.312;2023-06-04T07:54:00;7.07;;;3.20;;
59424;SDS011;45231;44.826;20.312;2023-06-04T07:56:27;6.15;;;3.30;;
59424;SDS011;45231;44.826;20.312;2023-06-04T08:01:19;6.40;;;3.53;;
59424;SDS011;45231;44.826;20.312;2023-06-04T08:03:46;7.70;;;3.55;;
59424;SDS011;45231;44.826;20.312;2023-06-04T08:06:12;7.65;;;3.40;;
59424;SDS011;45231;44.826;20.312;2023-06-04T08:08:42;6.97;;;3.70;;
59424;SDS011;45231;44.826;20.312;2023-06-04T08:11:10;7.53;;;3.50;;
59424;SDS011;45231;44.826;20.312;2023-06-04T08:13:36;8.02;;;3.45;;
59424;SDS011;45231;44.826;20.312;2023-06-04T08:16:02;6.78;;;3.35;;
59424;SDS011;45231;44.826;20.312;2023-06-04T08:18:28;7.22;;;3.58;;
59424;SDS011;45231;44.826;20.312;2023-06-04T08:20:54;8.48;;;3.40;;
59424;SDS011;45231;44.826;20.312;2023-06-04T08:23:21;7.40;;;3.85;;
59424;SDS011;45231;44.826;20.312;2023-06-04T08:25:47;8.10;;;3.40;;
59424;SDS011;45231;44.826;20.312;2023-06-04T08:28:14;8.13;;;3.92;;
59424;SDS011;45231;44.826;20.312;2023-06-04T08:30:41;5.82;;;3.63;;
59424;SDS011;45231;44.826;20.312;2023-06-04T08:33:08;6.90;;;3.47;;
59424;SDS011;45231;44.826;20.312;2023-06-04T08:35:34;7.10;;;3.92;;
59424;SDS011;45231;44.826;20.312;2023-06-04T08:38:00;8.63;;;3.80;;
59424;SDS011;45231;44.826;20.312;2023-06-04T08:40:27;6.38;;;3.58;;
59424;SDS011;45231;44.826;20.312;2023-06-04T08:42:55;6.07;;;3.30;;
59424;SDS011;45231;44.826;20.312;2023-06-04T08:45:24;9.35;;;4.00;;
59424;SDS011;45231;44.826;20.312;2023-06-04T08:47:53;11.85;;;4.68;;
59424;SDS011;45231;44.826;20.312;2023-06-04T08:50:21;9.77;;;4.63;;
59424;SDS011;45231;44.826;20.312;2023-06-04T08:52:54;10.20;;;4.45;;
59424;SDS011;45231;44.826;20.312;2023-06-04T08:55:21;7.78;;;4.55;;
59424;SDS011;45231;44.826;20.312;2023-06-04T08:57:49;10.02;;;4.30;;
59424;SDS011;45231;44.826;20.312;2023-06-04T09:00:18;8.25;;;4.90;;
59424;SDS011;45231;44.826;20.312;2023-06-04T09:02:45;9.63;;;4.65;;
59424;SDS011;45231;44.826;20.312;2023-06-04T09:05:14;8.43;;;3.97;;
59424;SDS011;45231;44.826;20.312;2023-06-04T09:07:44;7.07;;;4.13;;
59424;SDS011;45231;44.826;20.312;2023-06-04T09:10:11;8.10;;;4.47;;
59424;SDS011;45231;44.826;20.312;2023-06-04T09:12:40;9.85;;;4.38;;
59424;SDS011;45231;44.826;20.312;2023-06-04T09:15:08;11.27;;;4.80;;
59424;SDS011;45231;44.826;20.312;2023-06-04T09:20:00;9.73;;;4.50;;
59424;SDS011;45231;44.826;20.312;2023-06-04T09:22:36;7.57;;;4.50;;
59424;SDS011;45231;44.826;20.312;2023-06-04T09:25:05;8.57;;;4.28;;
59424;SDS011;45231;44.826;20.312;2023-06-04T09:27:38;11.15;;;4.55;;
59424;SDS011;45231;44.826;20.312;2023-06-04T09:30:05;9.05;;;4.03;;
59424;SDS011;45231;44.826;20.312;2023-06-04T09:32:33;10.60;;;4.40;;
59424;SDS011;45231;44.826;20.312;2023-06-04T09:37:25;8.13;;;4.70;;
59424;SDS011;45231;44.826;20.312;2023-06-04T09:39:56;10.68;;;4.70;;
59424;SDS011;45231;44.826;20.312;2023-06-04T09:42:22;8.73;;;4.43;;
59424;SDS011;45231;44.826;20.312;2023-06-04T09:44:48;10.07;;;4.43;;
59424;SDS011;45231;44.826;20.312;2023-06-04T09:47:15;11.00;;;4.55;;
59424;SDS011;45231;44.826;20.312;2023-06-04T09:52:07;9.13;;;4.53;;
59424;SDS011;45231;44.826;20.312;2023-06-04T09:56:59;7.55;;;4.30;;
59424;SDS011;45231;44.826;20.312;2023-06-04T09:59:25;8.25;;;4.50;;
59424;SDS011;45231;44.826;20.312;2023-06-04T10:04:18;10.80;;;3.80;;
59424;SDS011;45231;44.826;20.312;2023-06-04T10:06:45;8.88;;;3.88;;
59424;SDS011;45231;44.826;20.312;2023-06-04T10:09:11;9.27;;;3.88;;
59424;SDS011;45231;44.826;20.312;2023-06-04T10:11:44;8.75;;;4.40;;
59424;SDS011;45231;44.826;20.312;2023-06-04T10:14:18;7.22;;;3.85;;
59424;SDS011;45231;44.826;20.312;2023-06-04T10:16:45;6.07;;;4.03;;
59424;SDS011;45231;44.826;20.312;2023-06-04T10:19:12;8.50;;;4.15;;
59424;SDS011;45231;44.826;20.312;2023-06-04T10:21:38;5.68;;;3.55;;
59424;SDS011;45231;44.826;20.312;2023-06-04T10:26:32;10.23;;;4.20;;
59424;SDS011;45231;44.826;20.312;2023-06-04T10:28:58;8.10;;;4.03;;
59424;SDS011;45231;44.826;20.312;2023-06-04T10:31:26;6.95;;;3.70;;
59424;SDS011;45231;44.826;20.312;2023-06-04T10:33:55;6.75;;;3.95;;
59424;SDS011;45231;44.826;20.312;2023-06-04T10:36:22;8.55;;;4.28;;
59424;SDS011;45231;44.826;20.312;2023-06-04T10:38:49;8.02;;;3.90;;
59424;SDS011;45231;44.826;20.312;2023-06-04T10:41:16;8.85;;;4.20;;
59424;SDS011;45231;44.826;20.312;2023-06-04T10:43:45;6.70;;;4.10;;
59424;SDS011;45231;44.826;20.312;2023-06-04T10:46:14;7.32;;;3.60;;
59424;SDS011;45231;44.826;20.312;2023-06-04T10:48:50;6.75;;;3.80;;
59424;SDS011;45231;44.826;20.312;2023-06-04T10:51:28;5.57;;;3.78;;
59424;SDS011;45231;44.826;20.312;2023-06-04T10:53:56;8.07;;;3.85;;
59424;SDS011;45231;44.826;20.312;2023-06-04T10:56:26;8.32;;;4.47;;
59424;SDS011;45231;44.826;20.312;2023-06-04T10:58:52;7.45;;;3.78;;
59424;SDS011;45231;44.826;20.312;2023-06-04T11:01:28;7.45;;;3.92;;
59424;SDS011;45231;44.826;20.312;2023-06-04T11:03:56;8.52;;;3.60;;
59424;SDS011;45231;44.826;20.312;2023-06-04T11:09:00;7.93;;;3.75;;
59424;SDS011;45231;44.826;20.312;2023-06-04T11:11:27;7.53;;;3.40;;
59424;SDS011;45231;44.826;20.312;2023-06-04T11:13:53;7.38;;;3.67;;
59424;SDS011;45231;44.826;20.312;2023-06-04T11:18:57;5.78;;;3.45;;
59424;SDS011;45231;44.826;20.312;2023-06-04T11:21:27;8.32;;;3.65;;
59424;SDS011;45231;44.826;20.312;2023-06-04T11:24:00;7.90;;;4.15;;
59424;SDS011;45231;44.826;20.312;2023-06-04T11:26:33;8.20;;;3.88;;
59424;SDS011;45231;44.826;20.312;2023-06-04T11:29:00;7.80;;;3.90;;
59424;SDS011;45231;44.826;20.312;2023-06-04T11:31:26;8.68;;;4.15;;
59424;SDS011;45231;44.826;20.312;2023-06-04T11:33:52;7.05;;;4.13;;
59424;SDS011;45231;44.826;20.312;2023-06-04T11:36:25;8.52;;;3.78;;
59424;SDS011;45231;44.826;20.312;2023-06-04T11:38:58;6.43;;;3.40;;
59424;SDS011;45231;44.826;20.312;2023-06-04T11:41:27;9.30;;;3.05;;
59424;SDS011;45231;44.826;20.312;2023-06-04T11:43:53;9.00;;;3.60;;
59424;SDS011;45231;44.826;20.312;2023-06-04T11:46:19;7.38;;;3.10;;
59424;SDS011;45231;44.826;20.312;2023-06-04T11:48:46;7.15;;;3.17;;
59424;SDS011;45231;44.826;20.312;2023-06-04T11:51:12;10.73;;;3.33;;
59424;SDS011;45231;44.826;20.312;2023-06-04T11:53:38;12.15;;;3.55;;
59424;SDS011;45231;44.826;20.312;2023-06-04T11:56:05;7.25;;;3.10;;
59424;SDS011;45231;44.826;20.312;2023-06-04T11:58:31;10.43;;;3.25;;
59424;SDS011;45231;44.826;20.312;2023-06-04T12:00:57;7.03;;;3.00;;
59424;SDS011;45231;44.826;20.312;2023-06-04T12:03:31;10.27;;;3.25;;
59424;SDS011;45231;44.826;20.312;2023-06-04T12:05:57;6.10;;;3.10;;
59424;SDS011;45231;44.826;20.312;2023-06-04T12:08:23;8.05;;;3.38;;
59424;SDS011;45231;44.826;20.312;2023-06-04T12:10:50;6.43;;;3.05;;
59424;SDS011;45231;44.826;20.312;2023-06-04T12:13:16;8.23;;;2.80;;
59424;SDS011;45231;44.826;20.312;2023-06-04T12:15:42;8.50;;;3.00;;
59424;SDS011;45231;44.826;20.312;2023-06-04T12:18:08;7.68;;;3.05;;
59424;SDS011;45231;44.826;20.312;2023-06-04T12:20:36;10.93;;;2.88;;
59424;SDS011;45231;44.826;20.312;2023-06-04T12:23:03;5.90;;;3.17;;
59424;SDS011;45231;44.826;20.312;2023-06-04T12:25:29;8.00;;;3.85;;
59424;SDS011;45231;44.826;20.312;2023-06-04T12:27:56;8.68;;;3.00;;
59424;SDS011;45231;44.826;20.312;2023-06-04T12:32:48;8.05;;;2.90;;
59424;SDS011;45231;44.826;20.312;2023-06-04T12:35:15;9.02;;;2.80;;
59424;SDS011;45231;44.826;20.312;2023-06-04T12:40:07;6.57;;;3.13;;
59424;SDS011;45231;44.826;20.312;2023-06-04T12:45:00;9.10;;;2.90;;
59424;SDS011;45231;44.826;20.312;2023-06-04T12:49:52;5.43;;;2.58;;
59424;SDS011;45231;44.826;20.312;2023-06-04T12:52:18;7.68;;;2.80;;
59424;SDS011;45231;44.826;20.312;2023-06-04T12:54:44;8.00;;;2.90;;
59424;SDS011;45231;44.826;20.312;2023-06-04T12:57:10;6.07;;;2.70;;
59424;SDS011;45231;44.826;20.312;2023-06-04T12:59:36;6.20;;;2.78;;
59424;SDS011;45231;44.826;20.312;2023-06-04T13:02:02;6.20;;;2.90;;
59424;SDS011;45231;44.826;20.312;2023-06-04T13:04:28;8.30;;;3.03;;
59424;SDS011;45231;44.826;20.312;2023-06-04T13:09:24;7.95;;;3.40;;
59424;SDS011;45231;44.826;20.312;2023-06-04T13:11:50;8.90;;;3.25;;
59424;SDS011;45231;44.826;20.312;2023-06-04T13:14:16;6.25;;;2.78;;
59424;SDS011;45231;44.826;20.312;2023-06-04T13:16:42;9.77;;;3.10;;
59424;SDS011;45231;44.826;20.312;2023-06-04T13:19:10;8.55;;;2.60;;
59424;SDS011;45231;44.826;20.312;2023-06-04T13:21:36;5.95;;;2.75;;
59424;SDS011;45231;44.826;20.312;2023-06-04T13:24:02;7.85;;;3.38;;
59424;SDS011;45231;44.826;20.312;2023-06-04T13:28:54;6.38;;;2.78;;
59424;SDS011;45231;44.826;20.312;2023-06-04T13:31:21;8.30;;;2.80;;
59424;SDS011;45231;44.826;20.312;2023-06-04T13:33:47;6.75;;;3.00;;
59424;SDS011;45231;44.826;20.312;2023-06-04T13:36:13;5.47;;;2.47;;
59424;SDS011;45231;44.826;20.312;2023-06-04T13:41:08;7.20;;;3.05;;
59424;SDS011;45231;44.826;20.312;2023-06-04T13:43:34;6.45;;;3.15;;
59424;SDS011;45231;44.826;20.312;2023-06-04T13:46:00;8.05;;;3.30;;
59424;SDS011;45231;44.826;20.312;2023-06-04T13:48:27;6.45;;;2.40;;
59424;SDS011;45231;44.826;20.312;2023-06-04T13:50:53;6.68;;;2.60;;
59424;SDS011;45231;44.826;20.312;2023-06-04T13:53:19;8.18;;;3.30;;
59424;SDS011;45231;44.826;20.312;2023-06-04T13:55:45;6.10;;;2.90;;
59424;SDS011;45231;44.826;20.312;2023-06-04T13:58:12;5.53;;;2.95;;
59424;SDS011;45231;44.826;20.312;2023-06-04T14:00:39;6.88;;;2.83;;
59424;SDS011;45231;44.826;20.312;2023-06-04T14:03:05;5.68;;;2.65;;
59424;SDS011;45231;44.826;20.312;2023-06-04T14:05:31;8.55;;;2.78;;
59424;SDS011;45231;44.826;20.312;2023-06-04T14:07:57;7.32;;;3.40;;
59424;SDS011;45231;44.826;20.312;2023-06-04T14:10:24;6.55;;;2.80;;
59424;SDS011;45231;44.826;20.312;2023-06-04T14:12:50;8.60;;;2.70;;
59424;SDS011;45231;44.826;20.312;2023-06-04T14:15:16;6.20;;;2.60;;
59424;SDS011;45231;44.826;20.312;2023-06-04T14:17:42;5.57;;;2.80;;
59424;SDS011;45231;44.826;20.312;2023-06-04T14:20:08;8.68;;;2.83;;
59424;SDS011;45231;44.826;20.312;2023-06-04T14:22:34;8.43;;;2.70;;
59424;SDS011;45231;44.826;20.312;2023-06-04T14:25:02;5.25;;;2.63;;
59424;SDS011;45231;44.826;20.312;2023-06-04T14:27:28;6.88;;;2.60;;
59424;SDS011;45231;44.826;20.312;2023-06-04T14:32:20;4.40;;;2.25;;
59424;SDS011;45231;44.826;20.312;2023-06-04T14:34:46;5.20;;;2.47;;
59424;SDS011;45231;44.826;20.312;2023-06-04T14:37:12;6.15;;;2.72;;
59424;SDS011;45231;44.826;20.312;2023-06-04T14:39:38;6.88;;;2.17;;
59424;SDS011;45231;44.826;20.312;2023-06-04T14:42:04;6.90;;;2.28;;
59424;SDS011;45231;44.826;20.312;2023-06-04T14:44:30;5.18;;;2.15;;
59424;SDS011;45231;44.826;20.312;2023-06-04T14:49:22;6.32;;;2.33;;
59424;SDS011;45231;44.826;20.312;2023-06-04T14:51:49;7.22;;;2.40;;
59424;SDS011;45231;44.826;20.312;2023-06-04T14:54:15;5.35;;;2.38;;
59424;SDS011;45231;44.826;20.312;2023-06-04T14:56:41;7.05;;;2.60;;
59424;SDS011;45231;44.826;20.312;2023-06-04T14:59:07;5.57;;;2.50;;
59424;SDS011;45231;44.826;20.312;2023-06-04T15:01:36;6.32;;;2.45;;
59424;SDS011;45231;44.826;20.312;2023-06-04T15:04:03;5.18;;;2.40;;
59424;SDS011;45231;44.826;20.312;2023-06-04T15:06:29;4.45;;;2.30;;
59424;SDS011;45231;44.826;20.312;2023-06-04T15:08:55;5.90;;;2.58;;
59424;SDS011;45231;44.826;20.312;2023-06-04T15:11:21;4.55;;;2.13;;
59424;SDS011;45231;44.826;20.312;2023-06-04T15:13:47;6.50;;;2.08;;
59424;SDS011;45231;44.826;20.312;2023-06-04T15:16:13;6.25;;;2.20;;
59424;SDS011;45231;44.826;20.312;2023-06-04T15:18:39;4.45;;;2.05;;
59424;SDS011;45231;44.826;20.312;2023-06-04T15:21:05;6.00;;;2.42;;
59424;SDS011;45231;44.826;20.312;2023-06-04T15:23:32;5.32;;;2.30;;
59424;SDS011;45231;44.826;20.312;2023-06-04T15:25:59;5.22;;;2.13;;
59424;SDS011;45231;44.826;20.312;2023-06-04T15:28:25;9.45;;;2.60;;
59424;SDS011;45231;44.826;20.312;2023-06-04T15:30:51;5.05;;;2.08;;
59424;SDS011;45231;44.826;20.312;2023-06-04T15:33:17;8.15;;;2.53;;
59424;SDS011;45231;44.826;20.312;2023-06-04T15:35:43;5.88;;;2.53;;
59424;SDS011;45231;44.826;20.312;2023-06-04T15:38:09;6.65;;;2.40;;
59424;SDS011;45231;44.826;20.312;2023-06-04T15:40:35;9.77;;;2.55;;
59424;SDS011;45231;44.826;20.312;2023-06-04T15:43:01;5.20;;;2.30;;
59424;SDS011;45231;44.826;20.312;2023-06-04T15:45:27;4.72;;;2.70;;
59424;SDS011;45231;44.826;20.312;2023-06-04T15:47:53;9.07;;;2.50;;
59424;SDS011;45231;44.826;20.312;2023-06-04T15:50:20;5.82;;;2.47;;
59424;SDS011;45231;44.826;20.312;2023-06-04T15:52:46;5.85;;;2.47;;